createdAt,value
2018-04-16T00:01:34.191Z,94465.89
2018-04-16T00:04:02.447Z,94470.47
2018-04-16T00:06:31.489Z,94472.33
2018-04-16T00:08:59.743Z,94472.87
2018-04-16T00:11:28.021Z,94470.41
2018-04-16T00:13:56.290Z,94469.37
2018-04-16T00:16:24.569Z,94473.17
2018-04-16T00:18:53.588Z,94480.11
2018-04-16T00:21:21.995Z,94481.02
2018-04-16T00:23:50.252Z,94484.08
2018-04-16T00:26:18.499Z,94477.30
2018-04-16T00:28:47.536Z,94473.02
2018-04-16T00:31:15.803Z,94480.33
2018-04-16T00:33:49.567Z,94481.39
2018-04-16T00:39:24.731Z,94488.70
2018-04-16T00:41:59.155Z,94491.30
2018-04-16T00:44:33.610Z,94494.08
2018-04-16T00:47:07.320Z,94493.46
2018-04-16T00:49:41.013Z,94491.66
2018-04-16T00:52:14.749Z,94491.42
2018-04-16T00:54:48.447Z,94492.09
2018-04-16T00:57:22.242Z,94486.55
2018-04-16T00:59:56.060Z,94488.85
2018-04-16T01:05:37.563Z,94496.35
2018-04-16T01:08:11.237Z,94497.95
2018-04-16T01:10:44.889Z,94493.46
2018-04-16T01:13:19.311Z,94488.64
2018-04-16T01:15:53.746Z,94494.14
2018-04-16T01:18:27.446Z,94498.18
2018-04-16T01:21:01.192Z,94497.41
2018-04-16T01:23:34.881Z,94499.34
2018-04-16T01:26:08.822Z,94493.59
2018-04-16T01:31:58.748Z,94506.55
2018-04-16T01:37:37.343Z,94513.67
2018-04-16T01:40:11.070Z,94516.67
2018-04-16T01:42:44.918Z,94518.57
2018-04-16T01:45:18.571Z,94513.08
2018-04-16T01:47:53.019Z,94516.58
2018-04-16T01:50:27.338Z,94516.05
2018-04-16T01:53:01.193Z,94531.84
2018-04-16T01:55:34.843Z,94524.38
2018-04-16T01:58:08.491Z,94528.02
2018-04-16T02:00:42.891Z,94524.12
2018-04-16T02:03:16.579Z,94523.59
2018-04-16T02:08:56.892Z,94513.55
2018-04-16T02:11:30.791Z,94516.58
2018-04-16T02:14:05.919Z,94517.63
2018-04-16T02:16:39.619Z,94520.36
2018-04-16T02:19:13.427Z,94519.42
2018-04-16T02:21:47.307Z,94519.89
2018-04-16T02:24:21.155Z,94514.27
2018-04-16T02:26:54.895Z,94517.22
2018-04-16T02:29:28.542Z,94521.53
2018-04-16T02:32:02.221Z,94522.58
2018-04-16T02:34:35.982Z,94522.53
2018-04-16T02:37:09.623Z,94523.30
2018-04-16T02:39:43.275Z,94537.39
2018-04-16T02:42:16.983Z,94539.77
2018-04-16T02:44:50.750Z,94534.09
2018-04-16T02:50:26.131Z,94526.16
2018-04-16T02:53:00.003Z,94526.31
2018-04-16T02:55:33.723Z,94531.62
2018-04-16T02:58:07.811Z,94545.06
2018-04-16T03:00:41.319Z,94542.95
2018-04-16T03:03:14.976Z,94544.48
2018-04-16T03:05:49.555Z,94532.09
2018-04-16T03:08:23.143Z,94527.80
2018-04-16T03:10:56.792Z,94518.43
2018-04-16T03:13:30.455Z,94532.56
2018-04-16T03:16:04.325Z,94538.29
2018-04-16T03:18:37.927Z,94543.08
2018-04-16T03:21:11.767Z,94536.38
2018-04-16T03:23:45.466Z,94535.07
2018-04-16T03:26:19.207Z,94541.94
2018-04-16T03:31:58.576Z,94547.66
2018-04-16T03:34:32.222Z,94541.67
2018-04-16T03:37:06.069Z,94531.77
2018-04-16T03:39:39.855Z,94534.73
2018-04-16T03:45:20.566Z,94541.13
2018-04-16T03:47:54.247Z,94545.12
2018-04-16T03:50:28.152Z,94539.91
2018-04-16T03:53:01.859Z,94546.55
2018-04-16T03:55:33.579Z,94549.61
2018-04-16T03:58:01.952Z,94551.66
2018-04-16T04:00:30.217Z,94558.67
2018-04-16T04:02:59.331Z,94560.23
2018-04-16T04:05:27.584Z,94559.61
2018-04-16T04:07:55.853Z,94555.34
2018-04-16T04:10:24.120Z,94563.49
2018-04-16T04:12:52.388Z,94573.27
2018-04-16T04:15:20.659Z,94576.94
2018-04-16T04:17:48.920Z,94586.41
2018-04-16T04:20:17.193Z,94583.73
2018-04-16T04:23:02.963Z,94590.06
2018-04-16T04:25:49.614Z,94586.30
2018-04-16T04:28:35.510Z,94593.19
2018-04-16T04:31:03.774Z,94596.28
2018-04-16T04:33:32.035Z,94588.02
2018-04-16T04:36:00.308Z,94592.13
2018-04-16T04:38:28.568Z,94584.64
2018-04-16T04:40:57.597Z,94595.03
2018-04-16T04:43:25.854Z,94596.04
2018-04-16T04:45:54.890Z,94594.77
2018-04-16T04:48:23.146Z,94595.42
2018-04-16T04:50:51.411Z,94595.08
2018-04-16T04:53:20.599Z,94594.70
2018-04-16T04:55:49.688Z,94604.17
2018-04-16T04:58:17.956Z,94609.86
2018-04-16T05:00:46.231Z,94610.68
2018-04-16T05:03:14.526Z,94612.06
2018-04-16T05:05:42.790Z,94613.43
2018-04-16T05:08:11.042Z,94614.67
2018-04-16T05:10:39.346Z,94616.80
2018-04-16T05:13:07.611Z,94624.19
2018-04-16T05:15:35.866Z,94631.59
2018-04-16T05:18:04.134Z,94633.63
2018-04-16T05:20:32.398Z,94636.70
2018-04-16T05:23:01.436Z,94641.73
2018-04-16T05:25:29.695Z,94639.66
2018-04-16T05:27:58.749Z,94638.68
2018-04-16T05:30:26.995Z,94644.79
2018-04-16T05:32:55.276Z,94643.83
2018-04-16T05:35:23.526Z,94643.28
2018-04-16T05:37:52.555Z,94649.73
2018-04-16T05:40:20.807Z,94642.58
2018-04-16T05:42:49.836Z,94647.55
2018-04-16T05:45:18.091Z,94652.22
2018-04-16T05:47:47.128Z,94657.07
2018-04-16T05:50:15.382Z,94657.24
2018-04-16T05:52:43.650Z,94656.48
2018-04-16T05:55:12.864Z,94657.86
2018-04-16T05:57:41.128Z,94666.09
2018-04-16T06:00:09.653Z,94670.34
2018-04-16T06:02:37.914Z,94667.56
2018-04-16T06:05:06.168Z,94674.88
2018-04-16T06:07:35.195Z,94680.14
2018-04-16T06:10:03.450Z,94675.86
2018-04-16T06:12:32.479Z,94676.11
2018-04-16T06:15:00.734Z,94674.47
2018-04-16T06:17:29.775Z,94673.41
2018-04-16T06:19:58.039Z,94676.69
2018-04-16T06:22:26.294Z,94677.48
2018-04-16T06:24:55.394Z,94685.09
2018-04-16T06:27:24.472Z,94680.58
2018-04-16T06:29:52.699Z,94681.89
2018-04-16T06:32:20.954Z,94678.30
2018-04-16T06:34:49.224Z,94682.04
2018-04-16T06:37:18.239Z,94686.86
2018-04-16T06:39:46.514Z,94682.30
2018-04-16T06:42:14.776Z,94687.61
2018-04-16T06:44:43.814Z,94693.44
2018-04-16T06:47:12.079Z,94706.19
2018-04-16T06:49:40.348Z,94705.91
2018-04-16T06:52:09.375Z,94708.62
2018-04-16T06:54:37.634Z,94715.36
2018-04-16T06:57:05.900Z,94718.67
2018-04-16T06:59:36.181Z,94727.10
2018-04-16T07:02:04.451Z,94723.67
2018-04-16T07:04:32.721Z,94721.87
2018-04-16T07:07:00.981Z,94728.38
2018-04-16T07:09:29.952Z,94721.40
2018-04-16T07:11:58.199Z,94734.62
2018-04-16T07:14:26.459Z,94734.99
2018-04-16T07:16:54.715Z,94732.37
2018-04-16T07:19:22.992Z,94739.65
2018-04-16T07:21:52.016Z,94755.11
2018-04-16T07:24:20.333Z,94750.91
2018-04-16T07:26:48.578Z,94751.74
2018-04-16T07:29:16.848Z,94751.53
2018-04-16T07:31:45.102Z,94754.12
2018-04-16T07:34:14.148Z,94757.02
2018-04-16T07:36:42.415Z,94765.73
2018-04-16T07:39:10.663Z,94757.05
2018-04-16T07:41:39.710Z,94763.72
2018-04-16T07:44:07.959Z,94763.57
2018-04-16T07:46:36.230Z,94765.20
2018-04-16T07:49:05.286Z,94772.87
2018-04-16T07:51:34.152Z,94779.97
2018-04-16T07:54:02.413Z,94776.83
2018-04-16T07:56:30.688Z,94781.78
2018-04-16T07:58:59.702Z,94786.97
2018-04-16T08:01:27.996Z,94789.22
2018-04-16T08:03:56.223Z,94790.59
2018-04-16T08:06:25.255Z,94789.73
2018-04-16T08:08:53.515Z,94790.02
2018-04-16T08:11:22.555Z,94792.75
2018-04-16T08:13:50.798Z,94787.45
2018-04-16T08:16:19.071Z,94788.27
2018-04-16T08:18:48.103Z,94785.31
2018-04-16T08:21:16.357Z,94789.62
2018-04-16T08:23:44.616Z,94792.78
2018-04-16T08:26:12.887Z,94798.02
2018-04-16T08:28:41.162Z,94797.77
2018-04-16T08:31:09.422Z,94796.14
2018-04-16T08:33:38.936Z,94794.73
2018-04-16T08:36:07.234Z,94794.91
2018-04-16T08:38:35.511Z,94796.34
2018-04-16T08:41:03.784Z,94796.70
2018-04-16T08:43:32.043Z,94797.15
2018-04-16T08:46:00.312Z,94804.79
2018-04-16T08:48:28.702Z,94797.27
2018-04-16T08:50:56.963Z,94799.70
2018-04-16T08:53:25.227Z,94797.32
2018-04-16T08:55:54.248Z,94804.07
2018-04-16T08:58:22.524Z,94803.59
2018-04-16T09:00:50.778Z,94808.20
2018-04-16T09:03:19.810Z,94809.47
2018-04-16T09:05:48.063Z,94820.79
2018-04-16T09:08:17.139Z,94825.70
2018-04-16T09:10:45.392Z,94823.92
2018-04-16T09:13:13.715Z,94827.95
2018-04-16T09:15:41.967Z,94832.41
2018-04-16T09:18:10.243Z,94831.68
2018-04-16T09:20:38.513Z,94831.94
2018-04-16T09:23:06.774Z,94831.13
2018-04-16T09:25:35.036Z,94842.91
2018-04-16T09:28:03.319Z,94845.75
2018-04-16T09:30:31.571Z,94835.48
2018-04-16T09:32:59.915Z,94840.19
2018-04-16T09:35:28.111Z,94837.95
2018-04-16T09:37:56.379Z,94842.33
2018-04-16T09:40:24.636Z,94852.45
2018-04-16T09:42:52.907Z,94852.80
2018-04-16T09:45:21.183Z,94856.66
2018-04-16T09:47:49.451Z,94859.48
2018-04-16T09:50:18.589Z,94860.55
2018-04-16T09:52:47.593Z,94863.12
2018-04-16T09:55:15.855Z,94863.80
2018-04-16T09:57:44.123Z,94861.60
2018-04-16T10:00:12.386Z,94860.19
2018-04-16T10:02:46.946Z,94858.36
2018-04-16T10:05:15.203Z,94866.09
2018-04-16T10:07:43.469Z,94863.94
2018-04-16T10:10:12.495Z,94864.95
2018-04-16T10:12:40.755Z,94868.91
2018-04-16T10:15:09.787Z,94871.13
2018-04-16T10:17:38.042Z,94868.52
2018-04-16T10:20:06.313Z,94868.98
2018-04-16T10:22:35.336Z,94867.47
2018-04-16T10:25:03.599Z,94869.72
2018-04-16T10:27:32.620Z,94873.05
2018-04-16T10:30:01.112Z,94871.95
2018-04-16T10:32:29.377Z,94880.00
2018-04-16T10:34:57.629Z,94885.73
2018-04-16T10:37:26.657Z,94890.70
2018-04-16T10:39:54.914Z,94883.27
2018-04-16T10:42:23.934Z,94884.59
2018-04-16T10:44:52.203Z,94884.09
2018-04-16T10:47:20.464Z,94888.41
2018-04-16T10:49:49.493Z,94885.42
2018-04-16T10:52:17.756Z,94889.22
2018-04-16T10:54:46.796Z,94888.07
2018-04-16T10:57:15.050Z,94881.91
2018-04-16T10:59:43.316Z,94884.55
2018-04-16T11:02:12.563Z,94885.08
2018-04-16T11:04:40.830Z,94886.63
2018-04-16T11:07:09.079Z,94887.45
2018-04-16T11:09:37.362Z,94890.98
2018-04-16T11:12:07.286Z,94890.53
2018-04-16T11:14:35.660Z,94892.70
2018-04-16T11:17:04.675Z,94891.48
2018-04-16T11:19:32.939Z,94890.29
2018-04-16T11:22:01.956Z,94892.67
2018-04-16T11:24:30.220Z,94898.55
2018-04-16T11:26:59.275Z,94900.88
2018-04-16T11:29:27.541Z,94901.50
2018-04-16T11:31:55.799Z,94902.17
2018-04-16T11:34:24.060Z,94900.94
2018-04-16T11:36:52.311Z,94898.34
2018-04-16T11:39:20.582Z,94901.58
2018-04-16T11:41:48.904Z,94904.43
2018-04-16T11:44:17.155Z,94902.51
2018-04-16T11:46:45.428Z,94906.88
2018-04-16T11:49:13.687Z,94903.45
2018-04-16T11:51:41.949Z,94906.59
2018-04-16T11:54:10.199Z,94903.95
2018-04-16T11:56:39.228Z,94901.89
2018-04-16T11:59:07.491Z,94904.55
2018-04-16T12:01:35.755Z,94908.92
2018-04-16T12:04:04.779Z,94910.65
2018-04-16T12:06:33.036Z,94912.97
2018-04-16T12:09:02.060Z,94913.26
2018-04-16T12:11:30.331Z,94910.63
2018-04-16T12:13:58.570Z,94912.25
2018-04-16T12:16:26.835Z,94912.55
2018-04-16T12:18:55.185Z,94908.02
2018-04-16T12:21:23.360Z,94912.70
2018-04-16T12:23:51.615Z,94913.41
2018-04-16T12:26:20.652Z,94925.41
2018-04-16T12:28:48.901Z,94920.20
2018-04-16T12:31:17.166Z,94922.24
2018-04-16T12:33:46.179Z,94927.32
2018-04-16T12:36:14.446Z,94929.38
2018-04-16T12:38:43.476Z,94926.66
2018-04-16T12:41:11.747Z,94926.89
2018-04-16T12:43:40.004Z,94927.45
2018-04-16T12:46:09.037Z,94927.13
2018-04-16T12:48:37.295Z,94925.89
2018-04-16T12:51:06.315Z,94930.10
2018-04-16T12:53:34.562Z,94928.42
2018-04-16T12:56:03.592Z,94935.24
2018-04-16T12:58:31.843Z,94924.30
2018-04-16T13:01:00.867Z,94933.52
2018-04-16T13:03:29.125Z,94929.19
2018-04-16T13:05:58.151Z,94928.86
2018-04-16T13:08:26.832Z,94928.30
2018-04-16T13:10:55.130Z,94936.22
2018-04-16T13:13:23.366Z,94926.36
2018-04-16T13:15:52.395Z,94928.34
2018-04-16T13:18:20.647Z,94929.05
2018-04-16T13:20:49.674Z,94930.16
2018-04-16T13:23:17.945Z,94937.71
2018-04-16T13:25:46.202Z,94933.84
2018-04-16T13:28:15.219Z,94937.55
2018-04-16T13:30:43.479Z,94937.13
2018-04-16T13:33:12.501Z,94944.45
2018-04-16T13:35:40.756Z,94946.61
2018-04-16T13:38:09.790Z,94948.89
2018-04-16T13:40:38.051Z,94954.69
2018-04-16T13:43:06.372Z,94957.23
2018-04-16T13:45:35.342Z,94956.38
2018-04-16T13:48:03.708Z,94949.14
2018-04-16T13:50:31.978Z,94951.93
2018-04-16T13:53:01.009Z,94962.25
2018-04-16T13:55:29.268Z,94956.11
2018-04-16T13:57:57.535Z,94960.44
2018-04-16T14:00:27.790Z,94954.70
2018-04-16T14:02:56.051Z,94953.49
2018-04-16T14:05:24.311Z,94953.56
2018-04-16T14:07:52.579Z,94955.83
2018-04-16T14:10:20.835Z,94955.01
2018-04-16T14:12:49.102Z,94953.88
2018-04-16T14:15:17.355Z,94964.25
2018-04-16T14:17:45.623Z,94964.48
2018-04-16T14:20:13.899Z,94960.52
2018-04-16T14:22:42.935Z,94954.97
2018-04-16T14:25:11.193Z,94956.86
2018-04-16T14:27:39.462Z,94964.64
2018-04-16T14:30:08.486Z,94963.08
2018-04-16T14:32:36.752Z,94966.99
2018-04-16T14:35:05.024Z,94962.16
2018-04-16T14:37:34.039Z,94971.40
2018-04-16T14:40:02.311Z,94972.58
2018-04-16T14:42:30.563Z,94976.86
2018-04-16T14:44:58.819Z,94974.34
2018-04-16T14:47:27.099Z,94973.70
2018-04-16T14:49:55.366Z,94977.73
2018-04-16T14:52:23.630Z,94978.08
2018-04-16T14:54:51.892Z,94982.19
2018-04-16T14:57:20.147Z,94980.47
2018-04-16T14:59:48.415Z,94983.50
2018-04-16T15:02:16.717Z,94988.90
2018-04-16T15:04:44.942Z,94994.90
2018-04-16T15:07:13.199Z,94996.17
2018-04-16T15:09:41.468Z,94998.91
2018-04-16T15:12:10.488Z,94996.10
2018-04-16T15:14:38.750Z,94998.33
2018-04-16T15:17:07.008Z,94997.12
2018-04-16T15:19:35.339Z,94998.03
2018-04-16T15:22:03.547Z,95002.70
2018-04-16T15:24:31.838Z,95000.19
2018-04-16T15:27:00.102Z,95003.27
2018-04-16T15:29:28.375Z,95005.11
2018-04-16T15:31:56.640Z,95006.13
2018-04-16T15:34:24.908Z,95003.47
2018-04-16T15:36:53.167Z,95003.00
2018-04-16T15:39:22.205Z,95006.25
2018-04-16T15:41:50.485Z,95013.77
2018-04-16T15:44:18.754Z,95010.08
2018-04-16T15:46:47.002Z,95011.53
2018-04-16T15:49:16.030Z,95017.82
2018-04-16T15:51:44.304Z,95018.48
2018-04-16T15:54:12.551Z,95019.42
2018-04-16T15:56:40.819Z,95033.19
2018-04-16T15:59:09.069Z,95036.71
2018-04-16T16:01:37.348Z,95031.40
2018-04-16T16:04:05.611Z,95036.90
2018-04-16T16:06:33.874Z,95033.20
2018-04-16T16:09:02.160Z,95040.69
2018-04-16T16:11:30.431Z,95035.16
2018-04-16T16:13:59.459Z,95042.95
2018-04-16T16:16:27.731Z,95040.66
2018-04-16T16:18:55.987Z,95038.63
2018-04-16T16:21:25.060Z,95043.77
2018-04-16T16:23:53.382Z,95047.60
2018-04-16T16:26:21.651Z,95054.89
2018-04-16T16:28:50.679Z,95063.20
2018-04-16T16:31:18.954Z,95061.47
2018-04-16T16:33:47.215Z,95064.06
2018-04-16T16:36:15.496Z,95061.39
2018-04-16T16:38:44.528Z,95058.84
2018-04-16T16:41:12.794Z,95064.14
2018-04-16T16:43:41.056Z,95067.06
2018-04-16T16:46:09.319Z,95060.22
2018-04-16T16:48:38.349Z,95064.97
2018-04-16T16:51:06.614Z,95061.17
2018-04-16T16:53:34.879Z,95062.03
2018-04-16T16:56:03.905Z,95065.95
2018-04-16T16:58:32.211Z,95071.52
2018-04-16T17:01:00.474Z,95067.19
2018-04-16T17:03:28.734Z,95066.73
2018-04-16T17:05:56.991Z,95070.81
2018-04-16T17:08:25.257Z,95075.01
2018-04-16T17:10:53.519Z,95078.39
2018-04-16T17:13:21.784Z,95080.61
2018-04-16T17:15:51.596Z,95083.58
2018-04-16T17:18:19.866Z,95086.63
2018-04-16T17:20:48.123Z,95089.92
2018-04-16T17:23:17.160Z,95091.81
2018-04-16T17:25:45.410Z,95095.09
2018-04-16T17:28:13.683Z,95097.16
2018-04-16T17:30:42.726Z,95098.38
2018-04-16T17:33:11.000Z,95094.97
2018-04-16T17:35:39.254Z,95097.24
2018-04-16T17:38:07.515Z,95108.11
2018-04-16T17:40:37.791Z,95107.91
2018-04-16T17:43:06.063Z,95108.57
2018-04-16T17:45:34.317Z,95110.06
2018-04-16T17:48:02.582Z,95115.00
2018-04-16T17:50:31.608Z,95113.42
2018-04-16T17:52:59.880Z,95117.27
2018-04-16T17:55:28.993Z,95121.89
2018-04-16T17:57:57.254Z,95125.07
2018-04-16T18:00:25.501Z,95131.33
2018-04-16T18:02:53.782Z,95130.21
2018-04-16T18:05:22.073Z,95134.59
2018-04-16T18:07:50.303Z,95137.53
2018-04-16T18:10:18.587Z,95140.58
2018-04-16T18:12:46.860Z,95146.99
2018-04-16T18:15:15.137Z,95139.89
2018-04-16T18:17:43.392Z,95149.76
2018-04-16T18:20:12.474Z,95160.91
2018-04-16T18:22:40.738Z,95162.61
2018-04-16T18:25:09.016Z,95167.33
2018-04-16T18:27:37.275Z,95168.73
2018-04-16T18:30:05.539Z,95174.20
2018-04-16T18:32:33.808Z,95178.17
2018-04-16T18:35:02.079Z,95178.32
2018-04-16T18:37:31.120Z,95179.02
2018-04-16T18:39:59.393Z,95183.91
2018-04-16T18:42:27.640Z,95188.19
2018-04-16T18:44:55.911Z,95192.14
2018-04-16T18:47:24.936Z,95194.59
2018-04-16T18:49:53.199Z,95198.10
2018-04-16T18:52:21.454Z,95199.55
2018-04-16T18:54:49.730Z,95202.65
2018-04-16T18:57:17.985Z,95209.87
2018-04-16T18:59:46.322Z,95216.08
2018-04-16T19:02:14.579Z,95221.40
2018-04-16T19:04:42.856Z,95223.41
2018-04-16T19:07:12.622Z,95225.99
2018-04-16T19:09:40.887Z,95230.67
2018-04-16T19:12:09.153Z,95235.72
2018-04-16T19:14:38.181Z,95237.66
2018-04-16T19:17:06.439Z,95242.97
2018-04-16T19:19:34.723Z,95248.56
2018-04-16T19:22:02.995Z,95250.38
2018-04-16T19:24:32.027Z,95249.44
2018-04-16T19:27:05.807Z,95251.02
2018-04-16T19:29:34.071Z,95259.66
2018-04-16T19:32:03.111Z,95260.17
2018-04-16T19:34:36.626Z,95259.61
2018-04-16T19:37:04.897Z,95260.52
2018-04-16T19:39:33.164Z,95259.98
2018-04-16T19:42:06.704Z,95260.55
2018-04-16T19:44:34.969Z,95265.34
2018-04-16T19:47:03.229Z,95269.22
2018-04-16T19:49:36.901Z,95271.58
2018-04-16T19:52:05.936Z,95266.98
2018-04-16T19:54:34.191Z,95271.80
2018-04-16T19:57:07.986Z,95266.66
2018-04-16T19:59:37.031Z,95268.75
2018-04-16T20:02:10.837Z,95268.55
2018-04-16T20:04:39.092Z,95267.98
2018-04-16T20:07:07.362Z,95276.45
2018-04-16T20:09:35.644Z,95276.97
2018-04-16T20:12:03.916Z,95270.27
2018-04-16T20:14:32.931Z,95282.12
2018-04-16T20:17:01.206Z,95278.20
2018-04-16T20:19:29.468Z,95278.80
2018-04-16T20:21:58.505Z,95277.61
2018-04-16T20:24:26.760Z,95280.16
2018-04-16T20:26:55.027Z,95281.98
2018-04-16T20:29:24.055Z,95285.23
2018-04-16T20:31:52.335Z,95287.58
2018-04-16T20:34:20.599Z,95296.53
2018-04-16T20:36:48.867Z,95290.45
2018-04-16T20:39:17.899Z,95295.05
2018-04-16T20:41:46.263Z,95290.53
2018-04-16T20:44:16.546Z,95288.84
2018-04-16T20:50:23.566Z,95299.11
2018-04-16T20:52:52.683Z,95301.11
2018-04-16T20:55:20.935Z,95305.91
2018-04-16T20:57:49.971Z,95312.16
2018-04-16T21:00:18.253Z,95317.77
2018-04-16T21:02:46.508Z,95303.90
2018-04-16T21:05:14.782Z,95308.27
2018-04-16T21:07:49.773Z,95314.79
2018-04-16T21:10:18.074Z,95320.09
2018-04-16T21:12:46.394Z,95323.43
2018-04-16T21:15:14.694Z,95322.86
2018-04-16T21:17:43.023Z,95327.97
2018-04-16T21:20:11.346Z,95328.80
2018-04-16T21:22:39.646Z,95336.70
2018-04-16T21:25:07.961Z,95330.70
2018-04-16T21:27:36.343Z,95332.61
2018-04-16T21:30:05.473Z,95330.94
2018-04-16T21:32:34.647Z,95329.75
2018-04-16T21:35:02.980Z,95333.91
2018-04-16T21:37:31.284Z,95343.03
2018-04-16T21:39:59.598Z,95342.95
2018-04-16T21:42:28.675Z,95344.27
2018-04-16T21:44:56.992Z,95343.22
2018-04-16T21:47:26.061Z,95341.64
2018-04-16T21:49:54.374Z,95350.98
2018-04-16T21:52:23.500Z,95348.87
2018-04-16T21:54:51.988Z,95349.83
2018-04-16T21:57:20.306Z,95340.11
2018-04-16T21:59:48.622Z,95342.25
2018-04-16T22:02:17.685Z,95348.77
2018-04-16T22:04:45.996Z,95355.55
2018-04-16T22:07:14.308Z,95353.58
2018-04-16T22:09:42.614Z,95356.95
2018-04-16T22:12:10.935Z,95363.70
2018-04-16T22:14:40.024Z,95364.16
2018-04-16T22:17:08.679Z,95369.39
2018-04-16T22:19:36.975Z,95366.69
2018-04-16T22:22:05.282Z,95374.58
2018-04-16T22:24:33.607Z,95374.77
2018-04-16T22:27:01.923Z,95379.86
2018-04-16T22:29:30.311Z,95385.11
2018-04-16T22:31:58.622Z,95388.16
2018-04-16T22:34:27.682Z,95385.20
2018-04-16T22:36:55.990Z,95392.33
2018-04-16T22:39:24.302Z,95397.25
2018-04-16T22:41:53.202Z,95395.14
2018-04-16T22:44:21.499Z,95395.80
2018-04-16T22:46:50.206Z,95394.38
2018-04-16T22:49:18.562Z,95398.50
2018-04-16T22:51:46.885Z,95406.55
2018-04-16T22:54:15.182Z,95398.00
2018-04-16T22:56:43.509Z,95405.06
2018-04-16T22:59:11.806Z,95414.16
2018-04-16T23:01:40.123Z,95413.41
2018-04-16T23:04:08.434Z,95415.05
2018-04-16T23:06:36.758Z,95419.50
2018-04-16T23:09:05.067Z,95416.14
2018-04-16T23:11:33.390Z,95418.41
2018-04-16T23:14:01.696Z,95426.82
2018-04-16T23:16:30.012Z,95426.23
2018-04-16T23:18:58.319Z,95434.35
2018-04-16T23:21:27.475Z,95432.80
2018-04-16T23:23:55.779Z,95431.05
2018-04-16T23:26:24.092Z,95435.00
2018-04-16T23:28:53.156Z,95439.50
2018-04-16T23:31:21.471Z,95430.73
2018-04-16T23:33:49.780Z,95432.19
2018-04-16T23:36:18.098Z,95436.52
2018-04-16T23:38:46.402Z,95449.09
2018-04-16T23:41:15.477Z,95451.03
2018-04-16T23:43:43.784Z,95447.91
2018-04-16T23:46:12.860Z,95446.02
2018-04-16T23:48:41.223Z,95453.41
2018-04-16T23:51:09.520Z,95454.05
2018-04-16T23:53:37.890Z,95457.83
2018-04-16T23:56:06.191Z,95453.14
2018-04-16T23:58:34.494Z,95455.08
